Time;durP1;ratioP1;P1;durP2;ratioP2;P2;SDS_P1;SDS_P2;PMS_P1;PMS_P2;Temp;Humidity;BMP_temperature;BMP_pressure;BME280_temperature;BME280_humidity;BME280_pressure;Samples;Min_cycle;Max_cycle;Signal;HPM_P1;HPM_P2
2022/05/07 00:02:54;;;;;;;18.42;16.20;;;;;;;13.24;100.00;102237.69;10458145;28;20055;-61
2022/05/07 00:07:57;;;;;;;19.05;15.55;;;;;;;13.35;100.00;102238.09;10458057;28;20095;-61
2022/05/07 00:13:00;;;;;;;17.55;15.65;;;;;;;13.31;100.00;102233.00;10457818;28;20052;-61
2022/05/07 00:18:03;;;;;;;17.92;15.30;;;;;;;13.44;100.00;102234.16;10457593;28;20041;-61
2022/05/07 00:23:06;;;;;;;16.55;14.38;;;;;;;13.43;100.00;102231.63;10457503;28;20127;-62
2022/05/07 00:28:08;;;;;;;17.90;15.32;;;;;;;13.37;100.00;102227.50;10456584;28;20401;-62
2022/05/07 00:33:11;;;;;;;19.15;15.27;;;;;;;13.56;100.00;102228.31;10456119;28;20061;-62
2022/05/07 00:38:13;;;;;;;19.15;15.98;;;;;;;13.24;100.00;102231.59;10457085;28;20044;-62
2022/05/07 00:43:17;;;;;;;21.05;14.85;;;;;;;13.22;100.00;102223.75;10457088;28;20051;-62
2022/05/07 00:48:19;;;;;;;21.48;15.68;;;;;;;13.27;100.00;102226.19;10456983;28;20056;-62
2022/05/07 00:53:22;;;;;;;18.35;16.33;;;;;;;13.41;100.00;102221.16;10472311;28;20060;-62
2022/05/07 00:58:24;;;;;;;26.85;18.10;;;;;;;13.17;100.00;102217.88;10456001;28;20068;-62
2022/05/07 01:03:27;;;;;;;18.33;16.08;;;;;;;13.15;100.00;102212.66;10455980;28;20065;-62
2022/05/07 01:08:31;;;;;;;20.52;17.05;;;;;;;13.14;100.00;102215.38;10456580;28;20045;-62
2022/05/07 01:13:33;;;;;;;20.52;16.70;;;;;;;13.09;100.00;102207.69;10457027;28;20053;-62
2022/05/07 01:18:36;;;;;;;19.52;16.80;;;;;;;13.00;100.00;102208.97;10455652;28;20041;-62
2022/05/07 01:23:40;;;;;;;21.48;17.42;;;;;;;12.89;100.00;102207.72;10456500;28;20060;-62
2022/05/07 01:28:42;;;;;;;22.17;17.38;;;;;;;12.88;100.00;102203.38;10455665;28;20052;-62
2022/05/07 01:33:45;;;;;;;19.08;16.67;;;;;;;12.92;100.00;102207.59;10456146;28;20060;-62
2022/05/07 01:38:48;;;;;;;21.08;18.23;;;;;;;12.71;100.00;102209.38;10455947;28;20049;-62
2022/05/07 01:43:50;;;;;;;21.65;18.05;;;;;;;12.76;100.00;102208.28;10492648;22;20044;-62
2022/05/07 01:48:53;;;;;;;21.88;19.05;;;;;;;12.77;100.00;102203.88;10503524;28;20052;-61
2022/05/07 01:53:55;;;;;;;21.08;18.08;;;;;;;12.63;100.00;102205.34;10519917;28;20052;-62
2022/05/07 01:58:57;;;;;;;22.75;18.80;;;;;;;12.45;100.00;102195.63;10504564;28;20040;-62
2022/05/07 02:04:00;;;;;;;22.48;18.55;;;;;;;12.51;100.00;102191.88;10504423;28;20056;-62
2022/05/07 02:09:02;;;;;;;24.38;19.40;;;;;;;12.35;100.00;102199.56;10504252;28;20048;-61
2022/05/07 02:14:05;;;;;;;23.45;19.58;;;;;;;12.52;100.00;102193.59;10503416;28;20051;-61
2022/05/07 02:19:07;;;;;;;22.20;19.17;;;;;;;12.38;100.00;102194.19;10518828;28;20067;-61
2022/05/07 02:24:10;;;;;;;23.70;18.67;;;;;;;12.38;100.00;102191.56;10503664;28;20060;-61
2022/05/07 02:29:14;;;;;;;24.35;20.65;;;;;;;12.37;100.00;102187.22;10503482;28;20044;-61
2022/05/07 02:34:16;;;;;;;28.67;22.23;;;;;;;12.36;100.00;102180.28;10503278;28;20102;-61
2022/05/07 02:39:19;;;;;;;27.10;21.42;;;;;;;12.34;100.00;102180.34;10502372;28;20052;-61
2022/05/07 02:44:21;;;;;;;27.73;22.67;;;;;;;12.33;100.00;102176.00;10502052;28;20506;-61
2022/05/07 02:49:23;;;;;;;31.42;21.17;;;;;;;12.39;100.00;102174.88;10502685;28;20047;-61
2022/05/07 02:54:25;;;;;;;31.02;23.63;;;;;;;12.26;100.00;102179.81;10501836;28;20377;-61
2022/05/07 02:59:29;;;;;;;27.10;22.45;;;;;;;12.13;100.00;102171.59;10501768;28;20048;-61
2022/05/07 03:04:31;;;;;;;30.23;23.13;;;;;;;12.21;100.00;102179.16;10501416;28;20048;-61
2022/05/07 03:09:34;;;;;;;27.60;21.88;;;;;;;12.19;100.00;102178.38;10501221;28;20045;-61
2022/05/07 03:14:37;;;;;;;22.63;20.02;;;;;;;12.32;100.00;102166.38;10501654;28;20060;-61
2022/05/07 03:19:39;;;;;;;22.02;19.23;;;;;;;12.20;100.00;102177.44;10501358;28;20048;-61
2022/05/07 03:24:41;;;;;;;20.98;18.73;;;;;;;12.14;100.00;102165.44;10501179;28;20048;-62
2022/05/07 03:29:43;;;;;;;24.05;20.50;;;;;;;12.08;100.00;102170.91;10500962;28;20054;-62
2022/05/07 03:34:46;;;;;;;20.98;18.77;;;;;;;12.06;100.00;102168.34;10499986;28;20056;-62
2022/05/07 03:39:49;;;;;;;27.00;20.33;;;;;;;12.01;100.00;102166.84;10500583;28;20086;-62
2022/05/07 03:44:51;;;;;;;23.67;20.35;;;;;;;11.96;100.00;102163.56;10500062;28;20067;-62
2022/05/07 03:49:54;;;;;;;28.25;22.40;;;;;;;11.91;100.00;102166.38;10500214;28;20052;-62
2022/05/07 03:54:57;;;;;;;30.55;23.77;;;;;;;11.92;100.00;102169.84;10500528;28;20056;-62
2022/05/07 04:00:00;;;;;;;29.45;22.90;;;;;;;11.96;100.00;102169.66;10499084;28;20407;-62
2022/05/07 04:05:04;;;;;;;25.25;20.50;;;;;;;11.99;100.00;102168.69;10499633;28;20087;-62
2022/05/07 04:10:07;;;;;;;24.00;21.40;;;;;;;11.88;100.00;102169.09;10497609;28;20045;-62
2022/05/07 04:15:10;;;;;;;29.08;23.15;;;;;;;11.85;100.00;102167.47;10499278;28;20059;-62
2022/05/07 04:20:13;;;;;;;26.20;22.40;;;;;;;11.79;100.00;102167.69;10498523;28;20052;-62
2022/05/07 04:25:15;;;;;;;23.15;20.65;;;;;;;11.93;100.00;102169.78;10498457;28;20048;-62
2022/05/07 04:30:17;;;;;;;28.52;23.00;;;;;;;11.88;100.00;102162.09;10498976;28;20055;-62
2022/05/07 04:35:20;;;;;;;26.50;21.90;;;;;;;11.93;100.00;102169.78;10498220;28;20507;-62
2022/05/07 04:40:22;;;;;;;28.65;22.23;;;;;;;12.00;100.00;102173.88;10498448;28;20045;-62
2022/05/07 04:45:25;;;;;;;29.48;23.75;;;;;;;12.16;100.00;102179.34;10414203;28;20409;-62
2022/05/07 04:50:27;;;;;;;33.30;28.27;;;;;;;11.98;100.00;102182.72;10416245;28;20045;-62
2022/05/07 04:55:30;;;;;;;33.03;29.27;;;;;;;12.27;100.00;102179.75;10414560;28;20060;-62
2022/05/07 05:00:32;;;;;;;31.88;28.05;;;;;;;12.46;100.00;102178.94;10430279;28;20491;-62
2022/05/07 05:05:36;;;;;;;31.98;27.65;;;;;;;12.54;100.00;102187.34;10415525;28;20052;-62
2022/05/07 05:10:38;;;;;;;36.53;29.73;;;;;;;12.64;100.00;102196.53;10414800;28;20052;-62
2022/05/07 05:15:41;;;;;;;31.50;26.40;;;;;;;12.90;100.00;102198.94;10415244;28;20057;-62
2022/05/07 05:20:43;;;;;;;32.92;27.13;;;;;;;12.85;100.00;102201.75;10418389;28;20507;-62
2022/05/07 05:25:45;;;;;;;28.95;24.80;;;;;;;13.25;100.00;102204.38;10422664;28;20407;-62
2022/05/07 05:30:51;;;;;;;33.05;25.27;;;;;;;13.04;100.00;102212.28;10422518;28;20123;-62
2022/05/07 05:35:54;;;;;;;31.77;23.63;;;;;;;13.20;100.00;102215.94;10422260;28;20546;-62
2022/05/07 05:40:56;;;;;;;26.33;22.65;;;;;;;13.53;100.00;102225.00;10431572;28;20052;-62
2022/05/07 05:45:58;;;;;;;29.42;23.08;;;;;;;13.66;100.00;102222.66;10505176;28;20051;-62
2022/05/07 05:51:01;;;;;;;27.05;23.92;;;;;;;13.77;100.00;102225.63;10487450;28;20123;-62
2022/05/07 05:56:04;;;;;;;26.23;23.30;;;;;;;14.20;100.00;102222.66;10504655;28;20052;-62
2022/05/07 06:01:07;;;;;;;37.20;25.38;;;;;;;14.05;100.00;102230.38;10504609;28;20132;-62
2022/05/07 06:06:10;;;;;;;30.48;25.33;;;;;;;14.28;100.00;102231.03;10504370;28;20060;-62
2022/05/07 06:11:12;;;;;;;31.88;25.00;;;;;;;14.55;92.94;102231.41;10504193;28;20053;-62
2022/05/07 06:16:17;;;;;;;35.33;26.38;;;;;;;14.75;95.90;102242.75;10503951;28;20041;-62
2022/05/07 06:21:19;;;;;;;32.17;25.40;;;;;;;14.84;96.22;102244.88;10503856;28;20060;-62
2022/05/07 06:31:43;;;;;;;26.80;22.83;;;;;;;15.06;92.17;102247.22;10502609;28;20055;-62
2022/05/07 06:36:45;;;;;;;30.40;23.23;;;;;;;15.08;93.15;102250.66;10502462;28;20389;-62
2022/05/07 06:41:49;;;;;;;33.22;22.90;;;;;;;15.16;95.46;102252.88;10502149;28;20061;-62
2022/05/07 06:46:51;;;;;;;27.27;20.90;;;;;;;15.43;91.34;102250.50;10502172;28;20049;-62
2022/05/07 06:51:54;;;;;;;23.65;21.15;;;;;;;15.37;89.13;102251.72;10502805;28;20048;-62
2022/05/07 06:56:56;;;;;;;25.65;19.85;;;;;;;16.00;86.46;102243.88;10502335;28;20054;-62
2022/05/07 07:01:58;;;;;;;24.75;18.55;;;;;;;15.98;84.21;102246.63;10502207;28;20048;-62
2022/05/07 07:07:01;;;;;;;21.17;17.00;;;;;;;16.46;81.25;102244.69;10501965;28;20052;-62
2022/05/07 07:12:06;;;;;;;28.58;18.25;;;;;;;17.05;77.67;102236.75;10501022;28;20399;-62
2022/05/07 07:17:08;;;;;;;21.15;16.23;;;;;;;17.64;73.22;102236.56;10501483;28;20048;-62
2022/05/07 07:22:11;;;;;;;20.23;16.55;;;;;;;17.74;72.17;102244.75;10501232;28;20052;-63
2022/05/07 07:27:13;;;;;;;23.67;16.48;;;;;;;17.91;72.90;102233.09;10501017;28;20060;-62
2022/05/07 07:32:16;;;;;;;20.35;15.20;;;;;;;17.76;68.50;102236.72;10500922;28;20044;-62
2022/05/07 07:37:18;;;;;;;25.15;16.13;;;;;;;18.32;68.04;102240.06;10500020;28;20479;-62
2022/05/07 07:42:23;;;;;;;21.80;14.98;;;;;;;18.68;68.31;102241.19;10500444;28;20059;-62
2022/05/07 07:52:47;;;;;;;18.37;13.73;;;;;;;19.25;62.59;102239.88;10500192;28;20123;-62
2022/05/07 07:57:56;;;;;;;18.33;13.55;;;;;;;19.68;64.17;102239.41;10499183;28;20052;-63
2022/05/07 08:03:03;;;;;;;19.02;13.38;;;;;;;20.98;60.17;102240.34;10499148;28;20048;-63
2022/05/07 08:13:33;;;;;;;18.23;13.80;;;;;;;20.81;59.08;102230.16;10498846;28;20067;-63
2022/05/07 08:18:35;;;;;;;15.93;13.00;;;;;;;20.33;61.81;102233.81;10499252;28;20056;-63
2022/05/07 08:23:39;;;;;;;17.63;13.18;;;;;;;20.20;60.37;102232.06;10499095;28;20059;-63
2022/05/07 08:28:42;;;;;;;16.55;12.52;;;;;;;20.98;60.41;102237.66;10498366;28;20045;-63
2022/05/07 08:33:45;;;;;;;17.65;12.55;;;;;;;21.87;57.77;102232.28;10498803;28;20056;-63
2022/05/07 08:38:47;;;;;;;18.10;14.02;;;;;;;21.16;59.52;102243.31;10498705;28;20051;-63
2022/05/07 08:43:50;;;;;;;20.25;15.75;;;;;;;20.26;59.34;102252.03;10498460;28;20064;-63
2022/05/07 08:48:52;;;;;;;21.45;14.48;;;;;;;19.83;61.24;102253.41;10497954;28;20479;-63
2022/05/07 08:53:55;;;;;;;17.10;13.13;;;;;;;20.23;59.86;102246.94;10500569;28;20052;-63
2022/05/07 08:58:57;;;;;;;16.83;13.07;;;;;;;20.61;58.24;102243.19;10510295;28;20044;-63
2022/05/07 09:04:09;;;;;;;19.52;14.68;;;;;;;20.31;57.32;102236.56;10512040;28;20067;-63
2022/05/07 09:09:11;;;;;;;18.55;14.25;;;;;;;21.14;52.34;102237.28;10512048;28;20045;-63
2022/05/07 09:14:14;;;;;;;19.42;14.25;;;;;;;23.47;50.91;102244.41;10511258;28;20504;-63
2022/05/07 09:19:25;;;;;;;21.15;15.30;;;;;;;22.11;51.80;102228.53;10511716;28;20123;-63
2022/05/07 09:24:28;;;;;;;20.42;12.77;;;;;;;23.85;48.13;102227.59;10511089;28;20545;-63
2022/05/07 09:29:31;;;;;;;19.45;12.60;;;;;;;23.45;48.94;102238.38;10510402;28;20059;-63
2022/05/07 09:40:06;;;;;;;12.55;9.10;;;;;;;24.02;44.29;102233.22;10510747;28;20071;-63
2022/05/07 09:45:09;;;;;;;11.73;10.13;;;;;;;24.63;44.89;102234.72;10511114;28;20060;-63
2022/05/07 09:50:21;;;;;;;11.85;9.70;;;;;;;24.87;46.71;102238.72;10510042;28;20056;-63
2022/05/07 10:01:14;;;;;;;18.45;12.68;;;;;;;23.65;49.57;102240.06;10510078;28;20129;-63
2022/05/07 10:06:56;;;;;;;17.17;12.45;;;;;;;25.16;47.16;102233.22;10506797;28;20452;-63
2022/05/07 10:11:59;;;;;;;14.88;11.25;;;;;;;24.71;48.63;102228.63;10503317;28;20051;-63
2022/05/07 10:17:11;;;;;;;15.18;11.43;;;;;;;24.88;48.66;102232.34;10503927;28;20048;-63
2022/05/07 10:22:22;;;;;;;12.57;10.93;;;;;;;25.02;47.61;102221.16;10503873;28;20063;-63
2022/05/07 10:27:34;;;;;;;18.15;9.63;;;;;;;24.86;45.69;102216.44;10503727;28;20049;-64
2022/05/07 10:32:47;;;;;;;12.43;7.53;;;;;;;26.56;43.53;102223.75;10503459;28;20059;-63
2022/05/07 10:37:49;;;;;;;9.45;7.30;;;;;;;25.16;46.63;102225.16;10502264;28;20079;-63
2022/05/07 10:42:52;;;;;;;12.35;7.93;;;;;;;25.83;44.12;102222.19;10502319;28;20410;-63
2022/05/07 10:47:55;;;;;;;15.98;8.98;;;;;;;26.01;45.32;102217.69;10502826;28;20045;-64
2022/05/07 10:53:18;;;;;;;11.73;9.52;;;;;;;27.08;43.86;102217.47;10502023;28;20056;-63
2022/05/07 10:58:29;;;;;;;13.27;9.63;;;;;;;27.93;43.89;102207.41;10502315;28;20072;-63
2022/05/07 11:03:32;;;;;;;13.63;9.93;;;;;;;28.62;41.50;102206.13;10502337;28;20060;-63
2022/05/07 11:08:45;;;;;;;12.35;9.50;;;;;;;28.69;43.12;102199.84;10501988;28;20044;-64
2022/05/07 11:13:49;;;;;;;16.65;10.23;;;;;;;24.84;46.08;102203.19;10502364;28;20052;-64
2022/05/07 11:18:54;;;;;;;14.88;10.73;;;;;;;27.17;44.76;102195.00;10501176;28;20048;-64
2022/05/07 11:23:58;;;;;;;15.23;9.48;;;;;;;27.20;42.87;102195.50;10500734;28;20484;-64
2022/05/07 11:29:00;;;;;;;10.55;8.32;;;;;;;29.10;38.96;102196.13;10501186;28;20049;-63
2022/05/07 11:34:13;;;;;;;16.55;9.88;;;;;;;28.94;39.65;102193.53;10500926;28;20139;-64
2022/05/07 11:39:18;;;;;;;15.48;8.20;;;;;;;29.49;35.98;102189.84;10499597;28;20048;-64
2022/05/07 11:49:59;;;;;;;11.48;8.02;;;;;;;28.97;36.98;102179.72;10500369;28;20044;-64
2022/05/07 11:55:07;;;;;;;12.40;8.77;;;;;;;29.53;35.90;102174.13;10498370;28;20457;-64
2022/05/07 12:00:21;;;;;;;9.63;8.23;;;;;;;27.65;39.93;102179.13;10498324;28;20049;-64
2022/05/07 12:05:25;;;;;;;15.35;8.85;;;;;;;24.72;44.67;102182.13;10498548;28;20053;-64
2022/05/07 12:10:27;;;;;;;10.45;7.65;;;;;;;24.37;46.32;102172.91;10499537;28;20056;-64
2022/05/07 12:20:51;;;;;;;14.50;9.35;;;;;;;24.51;49.90;102175.13;10499368;28;20049;-64
2022/05/07 12:31:14;;;;;;;15.60;7.88;;;;;;;25.54;49.81;102180.38;10496688;28;20054;-64
2022/05/07 12:36:17;;;;;;;10.93;7.25;;;;;;;27.57;43.87;102180.81;10498269;28;20044;-64
2022/05/07 12:41:19;;;;;;;9.43;6.95;;;;;;;24.10;49.96;102177.19;10498695;28;20060;-64
2022/05/07 12:46:24;;;;;;;8.95;5.90;;;;;;;24.92;49.12;102182.88;10497130;28;20056;-64
2022/05/07 12:51:27;;;;;;;7.75;4.85;;;;;;;26.32;47.91;102174.28;10498173;28;20063;-64
2022/05/07 12:56:29;;;;;;;11.45;4.95;;;;;;;25.54;46.88;102183.88;10496564;28;20087;-65
2022/05/07 13:01:32;;;;;;;9.07;3.92;;;;;;;27.38;41.55;102189.19;10494921;28;20041;-64
2022/05/07 13:06:34;;;;;;;5.90;3.70;;;;;;;25.32;45.76;102192.41;10496376;28;20044;-65
2022/05/07 13:11:36;;;;;;;7.93;3.85;;;;;;;24.78;46.59;102192.22;10497387;28;20048;-64
2022/05/07 13:16:39;;;;;;;4.25;3.60;;;;;;;22.88;49.37;102198.84;10497708;28;20053;-64
2022/05/07 13:21:42;;;;;;;4.88;3.47;;;;;;;22.42;52.09;102206.31;10497375;28;20080;-64
2022/05/07 13:26:44;;;;;;;4.43;3.50;;;;;;;23.04;54.35;102209.00;10477000;28;20049;-64
2022/05/07 13:31:52;;;;;;;4.63;3.72;;;;;;;25.82;49.41;102202.56;10493403;28;20056;-66
2022/05/07 13:36:55;;;;;;;3.70;2.78;;;;;;;25.83;45.79;102206.94;10494081;28;20085;-66
2022/05/07 13:41:59;;;;;;;6.97;4.30;;;;;;;23.44;52.10;102210.81;10499566;28;20057;-65
2022/05/07 13:47:03;;;;;;;11.98;7.70;;;;;;;22.79;55.46;102207.63;10504075;28;20102;-66
2022/05/07 13:52:05;;;;;;;10.50;7.82;;;;;;;25.25;51.83;102200.16;10504624;28;20049;-66
2022/05/07 13:57:08;;;;;;;7.07;6.38;;;;;;;24.83;51.05;102198.84;10501613;22;20060;-67
2022/05/07 14:02:10;;;;;;;9.38;6.60;;;;;;;25.27;49.24;102202.69;10461808;28;20067;-67
2022/05/07 14:07:14;;;;;;;13.43;6.50;;;;;;;23.98;52.29;102194.41;10460781;28;20055;-66
2022/05/07 14:12:18;;;;;;;7.43;6.55;;;;;;;25.12;51.08;102197.84;10444211;28;20044;-66
2022/05/07 14:17:22;;;;;;;9.82;6.55;;;;;;;25.24;50.93;102200.31;10444137;28;20053;-66
2022/05/07 14:22:25;;;;;;;8.38;5.60;;;;;;;21.98;56.59;102210.91;10461040;28;20094;-66
2022/05/07 14:27:27;;;;;;;8.00;5.55;;;;;;;20.90;57.95;102208.13;10423198;28;20045;-66
2022/05/07 14:32:30;;;;;;;7.15;4.65;;;;;;;21.55;58.27;102201.13;10420631;28;20057;-66
2022/05/07 14:37:32;;;;;;;5.75;4.40;;;;;;;22.41;56.95;102199.31;10440434;28;20049;-67
2022/05/07 14:42:34;;;;;;;4.05;2.35;;;;;;;21.59;55.58;102196.44;10460043;28;20064;-65
2022/05/07 14:47:38;;;;;;;6.28;2.70;;;;;;;21.28;56.28;102196.22;10461491;28;20045;-65
2022/05/07 14:52:41;;;;;;;5.55;2.60;;;;;;;22.43;57.57;102184.00;10459988;28;20416;-65
2022/05/07 14:57:43;;;;;;;3.58;2.00;;;;;;;23.14;60.12;102190.34;10442468;28;20057;-66
2022/05/07 15:02:48;;;;;;;5.90;1.90;;;;;;;23.97;52.14;102182.81;10442231;28;20412;-66
2022/05/07 15:07:51;;;;;;;2.80;2.20;;;;;;;24.16;50.81;102184.66;10457583;28;20045;-66
2022/05/07 15:12:54;;;;;;;5.05;2.00;;;;;;;24.77;48.90;102187.88;10458402;28;20053;-66
2022/05/07 15:17:56;;;;;;;4.32;3.28;;;;;;;23.49;51.27;102189.03;10441961;28;20048;-66
2022/05/07 15:22:58;;;;;;;5.85;4.30;;;;;;;23.89;51.98;102170.19;10440764;28;20080;-66
2022/05/07 15:28:01;;;;;;;8.18;3.47;;;;;;;23.92;50.97;102171.72;10458479;28;20044;-66
2022/05/07 15:38:24;;;;;;;6.63;5.10;;;;;;;23.75;54.86;102181.28;10458124;28;20056;-67
2022/05/07 15:43:26;;;;;;;9.38;6.72;;;;;;;22.03;57.97;102190.03;10457527;28;20045;-66
2022/05/07 15:48:29;;;;;;;9.43;6.05;;;;;;;22.06;58.31;102187.13;10458120;28;20051;-66
2022/05/07 15:53:33;;;;;;;16.73;6.35;;;;;;;21.60;61.19;102204.31;10456028;28;20044;-66
2022/05/07 15:58:36;;;;;;;11.00;6.35;;;;;;;21.92;60.58;102197.25;10456305;28;20053;-65
2022/05/07 16:03:38;;;;;;;7.15;5.93;;;;;;;21.77;61.80;102202.91;10439669;28;20049;-65
2022/05/07 16:08:41;;;;;;;10.63;6.20;;;;;;;21.18;63.86;102208.59;10439886;28;20484;-66
2022/05/07 16:13:43;;;;;;;17.05;6.97;;;;;;;21.21;63.18;102209.19;10439451;28;20041;-66
2022/05/07 16:18:46;;;;;;;9.95;7.00;;;;;;;20.10;65.58;102208.94;10456970;28;20052;-66
2022/05/07 16:29:09;;;;;;;11.27;9.50;;;;;;;20.41;66.09;102213.63;10457322;28;20049;-66
2022/05/07 16:34:11;;;;;;;9.93;8.25;;;;;;;20.97;64.97;102222.66;10457129;28;20132;-66
2022/05/07 16:39:13;;;;;;;10.75;9.18;;;;;;;20.23;68.52;102223.00;10439171;28;20040;-65
2022/05/07 16:44:18;;;;;;;15.25;10.40;;;;;;;20.44;67.34;102225.00;10456295;28;20044;-66
2022/05/07 16:49:20;;;;;;;12.90;10.60;;;;;;;20.11;69.07;102222.13;10456135;28;20052;-66
2022/05/07 16:54:23;;;;;;;19.48;11.45;;;;;;;19.88;70.21;102233.63;10438724;28;20049;-65
2022/05/07 16:59:25;;;;;;;30.65;17.73;;;;;;;19.72;70.19;102240.06;10437751;28;20060;-66
2022/05/07 17:04:28;;;;;;;17.00;12.10;;;;;;;19.59;71.45;102249.88;10497338;28;20051;-65
2022/05/07 17:09:30;;;;;;;17.30;12.13;;;;;;;19.33;72.19;102244.63;10479889;28;20483;-67
2022/05/07 17:14:33;;;;;;;28.92;14.45;;;;;;;19.18;71.77;102235.97;10498665;28;20476;-66
2022/05/07 17:19:38;;;;;;;16.23;12.15;;;;;;;19.67;71.11;102248.38;10492021;28;20049;-66
2022/05/07 17:24:40;;;;;;;17.45;12.10;;;;;;;19.46;72.49;102241.94;10479488;28;20045;-66
2022/05/07 17:29:43;;;;;;;23.08;14.30;;;;;;;19.44;71.99;102252.69;10486148;28;20045;-70
2022/05/07 17:34:45;;;;;;;33.35;19.25;;;;;;;19.45;72.95;102253.53;10504200;28;20060;-70
2022/05/07 17:39:47;;;;;;;17.33;12.18;;;;;;;19.35;74.79;102244.53;10486991;28;20048;-70
2022/05/07 17:44:50;;;;;;;15.13;12.18;;;;;;;19.64;72.80;102245.09;10505547;28;20052;-70
2022/05/07 17:49:55;;;;;;;16.42;12.73;;;;;;;19.43;73.04;102258.09;10505191;28;20045;-70
2022/05/07 17:54:58;;;;;;;13.35;11.35;;;;;;;19.24;74.03;102256.75;10469520;28;20064;-70
2022/05/07 18:00:00;;;;;;;67.97;27.23;;;;;;;19.05;77.48;102261.69;10461731;28;20053;-69
2022/05/07 18:05:04;;;;;;;11.93;10.43;;;;;;;18.73;76.07;102262.94;10445023;28;20049;-70
2022/05/07 18:10:07;;;;;;;18.88;11.48;;;;;;;18.61;74.72;102270.88;10462286;28;20045;-69
2022/05/07 18:15:12;;;;;;;134.07;29.67;;;;;;;18.76;73.70;102267.16;10461440;28;20052;-70
2022/05/07 18:20:15;;;;;;;60.35;23.45;;;;;;;18.76;73.35;102280.44;10461171;28;20403;-69
2022/05/07 18:25:17;;;;;;;12.82;9.55;;;;;;;18.57;74.24;102289.66;10461540;28;20373;-70
2022/05/07 18:30:20;;;;;;;13.20;10.05;;;;;;;18.35;75.99;102292.91;10460835;28;20045;-69
2022/05/07 18:35:22;;;;;;;21.10;11.73;;;;;;;18.36;75.39;102299.06;10460681;28;20056;-69
2022/05/07 18:45:45;;;;;;;23.57;11.77;;;;;;;18.37;77.69;102308.72;10461070;28;20057;-69
2022/05/07 18:50:48;;;;;;;15.02;10.50;;;;;;;18.33;76.29;102313.38;10461500;28;20099;-70
2022/05/07 19:01:11;;;;;;;13.02;9.73;;;;;;;18.24;80.34;102315.78;10460309;28;20056;-70
2022/05/07 19:06:14;;;;;;;15.70;9.88;;;;;;;17.97;81.79;102328.09;10460748;28;20056;-70
2022/05/07 19:11:17;;;;;;;13.55;10.57;;;;;;;17.94;83.76;102332.75;10459836;28;20052;-70
2022/05/07 19:16:19;;;;;;;14.02;9.80;;;;;;;17.96;83.30;102333.50;10460469;28;20053;-70
2022/05/07 19:21:21;;;;;;;12.25;9.70;;;;;;;17.82;82.87;102343.13;10441053;28;20095;-70
2022/05/07 19:26:24;;;;;;;14.98;10.25;;;;;;;17.81;83.59;102340.59;10459783;28;20053;-70
2022/05/07 19:31:26;;;;;;;13.73;9.40;;;;;;;17.75;84.45;102340.97;10441836;28;20050;-70
2022/05/07 19:36:31;;;;;;;13.60;9.63;;;;;;;17.53;85.92;102347.59;10458559;28;20399;-70
2022/05/07 19:41:48;;;;;;;11.23;9.00;;;;;;;17.49;82.21;102353.22;10458405;28;20423;-70
2022/05/07 19:46:51;;;;;;;11.38;8.95;;;;;;;17.20;84.84;102359.34;10458847;28;20052;-70
2022/05/07 19:51:54;;;;;;;9.65;7.18;;;;;;;16.83;84.85;102366.81;10479350;28;20040;-69
2022/05/07 19:56:56;;;;;;;8.80;6.93;;;;;;;16.70;85.72;102377.25;10463559;28;20057;-69
2022/05/07 20:02:02;;;;;;;9.65;6.90;;;;;;;16.37;86.34;102382.66;10458450;28;20075;-69
2022/05/07 20:07:05;;;;;;;7.20;5.05;;;;;;;16.69;84.68;102388.78;10441669;28;20049;-69
2022/05/07 20:12:09;;;;;;;8.68;5.25;;;;;;;16.23;87.51;102399.31;10456995;28;20374;-70
2022/05/07 20:17:12;;;;;;;6.95;4.80;;;;;;;16.13;89.25;102420.09;10458539;28;20060;-69
2022/05/07 20:22:14;;;;;;;5.57;5.07;;;;;;;16.18;88.16;102422.50;10456573;28;20056;-69
2022/05/07 20:27:18;;;;;;;9.25;5.20;;;;;;;16.01;88.74;102433.16;10456906;28;20056;-69
2022/05/07 20:32:20;;;;;;;6.65;4.57;;;;;;;16.01;89.20;102439.28;10457177;28;20059;-70
2022/05/07 20:37:22;;;;;;;6.00;5.00;;;;;;;15.71;91.02;102447.03;10438940;28;20045;-70
2022/05/07 20:42:25;;;;;;;6.05;4.65;;;;;;;15.65;91.81;102447.34;10487805;28;20041;-70
2022/05/07 20:47:28;;;;;;;6.22;4.68;;;;;;;16.15;88.31;102463.19;10458919;28;20056;-70
2022/05/07 20:52:31;;;;;;;7.22;4.40;;;;;;;15.33;93.17;102457.78;10456343;28;20052;-69
2022/05/07 20:57:33;;;;;;;6.22;4.10;;;;;;;15.60;90.83;102466.94;10438527;28;20057;-70
2022/05/07 21:02:36;;;;;;;8.32;5.05;;;;;;;14.99;94.03;102472.69;10455966;28;20481;-71
2022/05/07 21:07:38;;;;;;;5.72;4.10;;;;;;;14.95;93.59;102477.25;10456878;28;20077;-70
2022/05/07 21:12:41;;;;;;;6.45;3.65;;;;;;;14.97;92.52;102482.47;10455461;28;20037;-70
2022/05/07 21:17:43;;;;;;;4.60;3.03;;;;;;;15.17;91.38;102486.75;10456356;28;20045;-70
2022/05/07 21:22:46;;;;;;;4.97;3.58;;;;;;;14.80;92.81;102494.66;10456273;28;20095;-70
2022/05/07 21:27:48;;;;;;;3.03;2.75;;;;;;;15.34;85.80;102488.53;10456513;28;20064;-70
2022/05/07 21:32:50;;;;;;;6.15;3.47;;;;;;;14.98;88.01;102490.28;10455385;28;20056;-69
2022/05/07 21:37:53;;;;;;;8.88;2.78;;;;;;;15.13;85.84;102493.97;10452366;28;20049;-70
2022/05/07 21:42:55;;;;;;;3.55;2.30;;;;;;;14.36;88.65;102492.34;10437467;28;20045;-70
2022/05/07 21:47:58;;;;;;;7.50;2.67;;;;;;;14.65;86.22;102491.00;10455485;28;20049;-69
2022/05/07 21:53:01;;;;;;;6.63;3.15;;;;;;;14.43;87.23;102501.66;10437982;28;20052;-69
2022/05/07 21:58:03;;;;;;;8.65;2.65;;;;;;;14.19;87.45;102508.03;10455269;28;20064;-69
2022/05/07 22:03:06;;;;;;;5.35;2.65;;;;;;;14.28;86.01;102507.63;10441971;28;20048;-69
2022/05/07 22:08:08;;;;;;;5.97;3.47;;;;;;;14.06;88.68;102508.59;10461877;28;20447;-70
2022/05/07 22:13:11;;;;;;;5.10;2.75;;;;;;;14.53;87.04;102515.25;10463156;28;20053;-69
2022/05/07 22:18:14;;;;;;;3.85;2.83;;;;;;;14.01;87.89;102520.28;10461966;28;20515;-70
2022/05/07 22:23:18;;;;;;;8.02;3.60;;;;;;;14.02;87.68;102517.59;10461698;28;20422;-68
2022/05/07 22:28:21;;;;;;;11.32;4.20;;;;;;;13.25;94.54;102528.72;10461538;28;20049;-69
2022/05/07 22:33:23;;;;;;;11.55;5.28;;;;;;;13.22;95.57;102528.00;10462247;28;20052;-69
2022/05/07 22:38:25;;;;;;;9.95;5.15;;;;;;;13.17;99.20;102538.69;10461176;28;20381;-69
2022/05/07 22:43:28;;;;;;;8.52;5.07;;;;;;;13.34;98.04;102530.16;10460840;28;20057;-69
2022/05/07 22:48:30;;;;;;;13.35;6.15;;;;;;;13.55;97.19;102533.66;10443698;28;20056;-68
2022/05/07 22:53:32;;;;;;;15.05;5.75;;;;;;;13.95;94.83;102537.19;10460791;28;20048;-68
2022/05/07 22:58:35;;;;;;;14.63;6.70;;;;;;;13.46;97.86;102555.09;10460198;28;20396;-68
2022/05/07 23:03:38;;;;;;;13.35;6.68;;;;;;;13.22;99.25;102555.16;10460239;28;20508;-68
2022/05/07 23:08:41;;;;;;;12.88;7.00;;;;;;;13.20;99.63;102562.25;10460559;28;20056;-70
2022/05/07 23:13:43;;;;;;;7.63;6.60;;;;;;;13.25;100.00;102570.81;10458981;28;20476;-69
2022/05/07 23:18:46;;;;;;;10.43;5.78;;;;;;;13.66;96.03;102567.41;10460391;28;20041;-69
2022/05/07 23:23:48;;;;;;;13.82;6.63;;;;;;;13.45;98.61;102572.66;10418902;28;20061;-69
2022/05/07 23:28:50;;;;;;;14.63;7.60;;;;;;;12.57;100.00;102583.94;10416958;28;20408;-69
2022/05/07 23:33:53;;;;;;;7.68;6.25;;;;;;;13.06;100.00;102583.81;10428348;28;20072;-69
2022/05/07 23:38:55;;;;;;;10.40;7.85;;;;;;;13.31;100.00;102583.69;10441887;28;20048;-70
2022/05/07 23:44:00;;;;;;;13.27;8.05;;;;;;;12.42;100.00;102590.63;10459307;28;20053;-69
2022/05/07 23:49:09;;;;;;;12.45;7.78;;;;;;;12.91;100.00;102600.19;10417301;28;20481;-68
2022/05/07 23:54:11;;;;;;;12.30;8.02;;;;;;;12.49;100.00;102598.28;10429684;28;20580;-69